sensor_id;sensor_type;location;lat;lon;timestamp;P1;durP1;ratioP1;P2;durP2;ratioP2
71639;SDS011;60912;48.968;10.124;2023-02-28T00:01:33;5.30;;;2.50;;
71639;SDS011;60912;48.968;10.124;2023-02-28T00:03:58;5.32;;;2.40;;
71639;SDS011;60912;48.968;10.124;2023-02-28T00:06:24;4.90;;;1.60;;
71639;SDS011;60912;48.968;10.124;2023-02-28T00:08:50;5.45;;;2.03;;
71639;SDS011;60912;48.968;10.124;2023-02-28T00:11:15;6.80;;;2.60;;
71639;SDS011;60912;48.968;10.124;2023-02-28T00:13:42;4.03;;;1.80;;
71639;SDS011;60912;48.968;10.124;2023-02-28T00:16:12;6.55;;;2.78;;
71639;SDS011;60912;48.968;10.124;2023-02-28T00:18:43;4.20;;;1.83;;
71639;SDS011;60912;48.968;10.124;2023-02-28T00:21:09;5.82;;;2.28;;
71639;SDS011;60912;48.968;10.124;2023-02-28T00:23:37;7.25;;;2.60;;
71639;SDS011;60912;48.968;10.124;2023-02-28T00:26:03;4.67;;;2.23;;
71639;SDS011;60912;48.968;10.124;2023-02-28T00:28:29;5.22;;;2.20;;
71639;SDS011;60912;48.968;10.124;2023-02-28T00:30:55;7.05;;;2.40;;
71639;SDS011;60912;48.968;10.124;2023-02-28T00:33:22;6.67;;;2.37;;
71639;SDS011;60912;48.968;10.124;2023-02-28T00:35:47;10.40;;;1.90;;
71639;SDS011;60912;48.968;10.124;2023-02-28T00:38:13;3.43;;;1.70;;
71639;SDS011;60912;48.968;10.124;2023-02-28T00:40:40;5.13;;;2.47;;
71639;SDS011;60912;48.968;10.124;2023-02-28T00:43:08;9.02;;;2.92;;
71639;SDS011;60912;48.968;10.124;2023-02-28T00:45:34;7.77;;;2.20;;
71639;SDS011;60912;48.968;10.124;2023-02-28T00:47:59;4.25;;;1.70;;
71639;SDS011;60912;48.968;10.124;2023-02-28T00:50:25;6.23;;;2.50;;
71639;SDS011;60912;48.968;10.124;2023-02-28T00:52:50;7.50;;;2.60;;
71639;SDS011;60912;48.968;10.124;2023-02-28T00:55:16;4.88;;;1.83;;
71639;SDS011;60912;48.968;10.124;2023-02-28T00:57:41;5.30;;;2.97;;
71639;SDS011;60912;48.968;10.124;2023-02-28T01:00:09;7.45;;;2.85;;
71639;SDS011;60912;48.968;10.124;2023-02-28T01:02:35;5.33;;;2.43;;
71639;SDS011;60912;48.968;10.124;2023-02-28T01:05:01;5.40;;;2.65;;
71639;SDS011;60912;48.968;10.124;2023-02-28T01:07:27;5.63;;;2.73;;
71639;SDS011;60912;48.968;10.124;2023-02-28T01:09:58;5.10;;;2.23;;
71639;SDS011;60912;48.968;10.124;2023-02-28T01:12:24;5.03;;;2.13;;
71639;SDS011;60912;48.968;10.124;2023-02-28T01:15:00;4.63;;;2.10;;
71639;SDS011;60912;48.968;10.124;2023-02-28T01:17:26;7.00;;;2.67;;
71639;SDS011;60912;48.968;10.124;2023-02-28T01:19:53;6.32;;;2.40;;
71639;SDS011;60912;48.968;10.124;2023-02-28T01:23:17;9.30;;;2.40;;
71639;SDS011;60912;48.968;10.124;2023-02-28T01:26:29;4.50;;;2.15;;
71639;SDS011;60912;48.968;10.124;2023-02-28T01:29:33;6.95;;;2.45;;
71639;SDS011;60912;48.968;10.124;2023-02-28T01:32:02;6.55;;;2.65;;
71639;SDS011;60912;48.968;10.124;2023-02-28T01:35:01;9.30;;;3.42;;
71639;SDS011;60912;48.968;10.124;2023-02-28T01:37:35;7.57;;;2.87;;
71639;SDS011;60912;48.968;10.124;2023-02-28T01:40:16;6.13;;;2.70;;
71639;SDS011;60912;48.968;10.124;2023-02-28T01:43:04;7.63;;;2.90;;
71639;SDS011;60912;48.968;10.124;2023-02-28T01:46:02;7.63;;;2.78;;
71639;SDS011;60912;48.968;10.124;2023-02-28T01:51:57;4.63;;;1.67;;
71639;SDS011;60912;48.968;10.124;2023-02-28T01:54:55;6.15;;;2.35;;
71639;SDS011;60912;48.968;10.124;2023-02-28T01:57:35;6.57;;;3.08;;
71639;SDS011;60912;48.968;10.124;2023-02-28T02:03:33;7.57;;;3.33;;
71639;SDS011;60912;48.968;10.124;2023-02-28T02:06:19;7.13;;;3.40;;
71639;SDS011;60912;48.968;10.124;2023-02-28T02:15:14;6.07;;;2.83;;
71639;SDS011;60912;48.968;10.124;2023-02-28T02:36:40;8.93;;;2.90;;
71639;SDS011;60912;48.968;10.124;2023-02-28T02:45:56;5.10;;;2.30;;
71639;SDS011;60912;48.968;10.124;2023-02-28T02:48:31;8.38;;;3.20;;
71639;SDS011;60912;48.968;10.124;2023-02-28T02:50:59;5.07;;;2.57;;
71639;SDS011;60912;48.968;10.124;2023-02-28T02:54:30;5.40;;;2.50;;
71639;SDS011;60912;48.968;10.124;2023-02-28T02:56:47;7.40;;;3.33;;
71639;SDS011;60912;48.968;10.124;2023-02-28T02:59:33;3.55;;;1.80;;
71639;SDS011;60912;48.968;10.124;2023-02-28T03:02:04;5.13;;;2.20;;
71639;SDS011;60912;48.968;10.124;2023-02-28T03:04:34;7.50;;;3.53;;
71639;SDS011;60912;48.968;10.124;2023-02-28T03:07:14;5.65;;;2.72;;
71639;SDS011;60912;48.968;10.124;2023-02-28T03:31:15;7.20;;;2.88;;
71639;SDS011;60912;48.968;10.124;2023-02-28T03:34:38;4.90;;;2.67;;
71639;SDS011;60912;48.968;10.124;2023-02-28T03:37:41;10.10;;;3.95;;
71639;SDS011;60912;48.968;10.124;2023-02-28T03:40:32;7.38;;;3.53;;
71639;SDS011;60912;48.968;10.124;2023-02-28T03:46:35;7.40;;;3.75;;
71639;SDS011;60912;48.968;10.124;2023-02-28T03:51:58;10.05;;;4.00;;
71639;SDS011;60912;48.968;10.124;2023-02-28T03:54:48;9.27;;;3.45;;
71639;SDS011;60912;48.968;10.124;2023-02-28T04:00:37;7.35;;;3.80;;
71639;SDS011;60912;48.968;10.124;2023-02-28T04:03:04;8.17;;;3.57;;
71639;SDS011;60912;48.968;10.124;2023-02-28T04:08:36;7.22;;;3.53;;
71639;SDS011;60912;48.968;10.124;2023-02-28T04:13:41;8.98;;;3.80;;
71639;SDS011;60912;48.968;10.124;2023-02-28T04:16:19;5.97;;;2.70;;
71639;SDS011;60912;48.968;10.124;2023-02-28T04:21:57;11.60;;;4.50;;
71639;SDS011;60912;48.968;10.124;2023-02-28T04:24:56;11.07;;;4.20;;
71639;SDS011;60912;48.968;10.124;2023-02-28T04:27:21;8.30;;;3.33;;
71639;SDS011;60912;48.968;10.124;2023-02-28T04:29:46;9.47;;;4.40;;
71639;SDS011;60912;48.968;10.124;2023-02-28T04:32:12;9.07;;;3.93;;
71639;SDS011;60912;48.968;10.124;2023-02-28T04:34:37;8.85;;;4.32;;
71639;SDS011;60912;48.968;10.124;2023-02-28T04:37:03;8.40;;;3.60;;
71639;SDS011;60912;48.968;10.124;2023-02-28T04:39:28;6.63;;;3.17;;
71639;SDS011;60912;48.968;10.124;2023-02-28T04:41:54;9.57;;;3.70;;
71639;SDS011;60912;48.968;10.124;2023-02-28T04:44:20;9.20;;;5.40;;
71639;SDS011;60912;48.968;10.124;2023-02-28T04:46:49;11.97;;;4.50;;
71639;SDS011;60912;48.968;10.124;2023-02-28T04:49:15;10.35;;;4.13;;
71639;SDS011;60912;48.968;10.124;2023-02-28T04:51:41;11.10;;;4.37;;
71639;SDS011;60912;48.968;10.124;2023-02-28T04:54:09;9.50;;;4.25;;
71639;SDS011;60912;48.968;10.124;2023-02-28T04:56:38;8.07;;;3.60;;
71639;SDS011;60912;48.968;10.124;2023-02-28T04:59:06;7.30;;;3.15;;
71639;SDS011;60912;48.968;10.124;2023-02-28T05:01:32;5.00;;;2.50;;
71639;SDS011;60912;48.968;10.124;2023-02-28T05:04:00;8.43;;;3.85;;
71639;SDS011;60912;48.968;10.124;2023-02-28T05:06:28;9.13;;;3.35;;
71639;SDS011;60912;48.968;10.124;2023-02-28T05:08:55;9.57;;;3.60;;
71639;SDS011;60912;48.968;10.124;2023-02-28T05:13:49;11.15;;;4.63;;
71639;SDS011;60912;48.968;10.124;2023-02-28T05:16:15;4.95;;;2.75;;
71639;SDS011;60912;48.968;10.124;2023-02-28T05:18:46;8.38;;;4.03;;
71639;SDS011;60912;48.968;10.124;2023-02-28T05:21:20;11.03;;;4.67;;
71639;SDS011;60912;48.968;10.124;2023-02-28T05:24:10;8.93;;;3.92;;
71639;SDS011;60912;48.968;10.124;2023-02-28T05:26:37;5.57;;;2.83;;
71639;SDS011;60912;48.968;10.124;2023-02-28T05:29:04;10.48;;;5.28;;
71639;SDS011;60912;48.968;10.124;2023-02-28T05:31:30;8.53;;;4.00;;
71639;SDS011;60912;48.968;10.124;2023-02-28T05:33:56;12.48;;;4.55;;
71639;SDS011;60912;48.968;10.124;2023-02-28T05:36:22;11.30;;;3.47;;
71639;SDS011;60912;48.968;10.124;2023-02-28T05:38:48;9.60;;;4.88;;
71639;SDS011;60912;48.968;10.124;2023-02-28T05:41:14;10.30;;;5.65;;
71639;SDS011;60912;48.968;10.124;2023-02-28T05:43:40;8.90;;;4.67;;
71639;SDS011;60912;48.968;10.124;2023-02-28T05:46:06;10.70;;;4.97;;
71639;SDS011;60912;48.968;10.124;2023-02-28T05:48:33;11.50;;;5.50;;
71639;SDS011;60912;48.968;10.124;2023-02-28T05:51:00;10.18;;;4.55;;
71639;SDS011;60912;48.968;10.124;2023-02-28T05:53:26;9.27;;;5.25;;
71639;SDS011;60912;48.968;10.124;2023-02-28T05:55:51;7.77;;;4.00;;
71639;SDS011;60912;48.968;10.124;2023-02-28T05:58:17;10.80;;;4.80;;
71639;SDS011;60912;48.968;10.124;2023-02-28T06:00:46;10.02;;;5.00;;
71639;SDS011;60912;48.968;10.124;2023-02-28T06:03:12;13.32;;;4.88;;
71639;SDS011;60912;48.968;10.124;2023-02-28T06:05:38;14.00;;;4.77;;
71639;SDS011;60912;48.968;10.124;2023-02-28T06:08:03;8.83;;;4.13;;
71639;SDS011;60912;48.968;10.124;2023-02-28T06:10:31;13.85;;;5.60;;
71639;SDS011;60912;48.968;10.124;2023-02-28T06:13:01;9.02;;;4.97;;
71639;SDS011;60912;48.968;10.124;2023-02-28T06:15:37;11.00;;;5.17;;
71639;SDS011;60912;48.968;10.124;2023-02-28T06:18:03;11.77;;;5.38;;
71639;SDS011;60912;48.968;10.124;2023-02-28T06:20:29;11.40;;;5.28;;
71639;SDS011;60912;48.968;10.124;2023-02-28T06:22:55;11.23;;;5.70;;
71639;SDS011;60912;48.968;10.124;2023-02-28T06:25:27;13.05;;;5.43;;
71639;SDS011;60912;48.968;10.124;2023-02-28T06:27:53;13.97;;;5.33;;
71639;SDS011;60912;48.968;10.124;2023-02-28T06:30:19;6.03;;;2.85;;
71639;SDS011;60912;48.968;10.124;2023-02-28T06:32:48;10.27;;;5.57;;
71639;SDS011;60912;48.968;10.124;2023-02-28T06:35:14;11.97;;;6.57;;
71639;SDS011;60912;48.968;10.124;2023-02-28T06:37:40;12.93;;;6.90;;
71639;SDS011;60912;48.968;10.124;2023-02-28T06:40:07;13.18;;;5.93;;
71639;SDS011;60912;48.968;10.124;2023-02-28T06:42:33;10.35;;;5.43;;
71639;SDS011;60912;48.968;10.124;2023-02-28T06:44:58;8.73;;;4.37;;
71639;SDS011;60912;48.968;10.124;2023-02-28T06:47:27;8.93;;;4.13;;
71639;SDS011;60912;48.968;10.124;2023-02-28T06:53:07;10.70;;;4.95;;
71639;SDS011;60912;48.968;10.124;2023-02-28T06:55:41;14.10;;;6.23;;
71639;SDS011;60912;48.968;10.124;2023-02-28T06:58:07;15.93;;;7.65;;
71639;SDS011;60912;48.968;10.124;2023-02-28T07:00:44;8.40;;;4.18;;
71639;SDS011;60912;48.968;10.124;2023-02-28T07:03:11;11.18;;;5.68;;
71639;SDS011;60912;48.968;10.124;2023-02-28T07:05:37;11.00;;;5.30;;
71639;SDS011;60912;48.968;10.124;2023-02-28T07:08:03;10.55;;;4.28;;
71639;SDS011;60912;48.968;10.124;2023-02-28T07:10:29;10.15;;;4.65;;
71639;SDS011;60912;48.968;10.124;2023-02-28T07:13:10;11.02;;;3.55;;
71639;SDS011;60912;48.968;10.124;2023-02-28T07:15:36;10.33;;;4.40;;
71639;SDS011;60912;48.968;10.124;2023-02-28T07:18:02;12.07;;;6.18;;
71639;SDS011;60912;48.968;10.124;2023-02-28T07:20:28;11.20;;;5.90;;
71639;SDS011;60912;48.968;10.124;2023-02-28T07:23:36;9.48;;;3.97;;
71639;SDS011;60912;48.968;10.124;2023-02-28T07:25:49;10.00;;;4.70;;
71639;SDS011;60912;48.968;10.124;2023-02-28T07:31:19;10.38;;;4.82;;
71639;SDS011;60912;48.968;10.124;2023-02-28T07:33:44;13.80;;;5.88;;
71639;SDS011;60912;48.968;10.124;2023-02-28T07:36:12;10.77;;;5.50;;
71639;SDS011;60912;48.968;10.124;2023-02-28T07:38:44;11.02;;;5.30;;
71639;SDS011;60912;48.968;10.124;2023-02-28T07:41:20;9.15;;;4.68;;
71639;SDS011;60912;48.968;10.124;2023-02-28T07:43:47;14.03;;;6.63;;
71639;SDS011;60912;48.968;10.124;2023-02-28T07:46:14;12.75;;;6.57;;
71639;SDS011;60912;48.968;10.124;2023-02-28T07:51:30;12.40;;;6.65;;
71639;SDS011;60912;48.968;10.124;2023-02-28T07:53:55;8.37;;;4.33;;
71639;SDS011;60912;48.968;10.124;2023-02-28T07:56:21;12.55;;;5.88;;
71639;SDS011;60912;48.968;10.124;2023-02-28T07:58:46;12.87;;;7.07;;
71639;SDS011;60912;48.968;10.124;2023-02-28T08:01:12;11.20;;;6.20;;
71639;SDS011;60912;48.968;10.124;2023-02-28T08:03:43;10.80;;;4.77;;
71639;SDS011;60912;48.968;10.124;2023-02-28T08:06:16;16.92;;;6.70;;
71639;SDS011;60912;48.968;10.124;2023-02-28T08:08:45;12.10;;;6.15;;
71639;SDS011;60912;48.968;10.124;2023-02-28T08:11:11;12.43;;;6.87;;
71639;SDS011;60912;48.968;10.124;2023-02-28T08:13:37;15.93;;;6.80;;
71639;SDS011;60912;48.968;10.124;2023-02-28T08:16:02;14.33;;;6.13;;
71639;SDS011;60912;48.968;10.124;2023-02-28T08:18:28;8.23;;;4.50;;
71639;SDS011;60912;48.968;10.124;2023-02-28T08:20:58;14.15;;;6.68;;
71639;SDS011;60912;48.968;10.124;2023-02-28T08:23:24;11.82;;;5.00;;
71639;SDS011;60912;48.968;10.124;2023-02-28T08:25:58;8.37;;;3.60;;
71639;SDS011;60912;48.968;10.124;2023-02-28T08:28:24;10.85;;;4.70;;
71639;SDS011;60912;48.968;10.124;2023-02-28T08:30:52;13.97;;;7.13;;
71639;SDS011;60912;48.968;10.124;2023-02-28T08:33:18;9.73;;;4.43;;
71639;SDS011;60912;48.968;10.124;2023-02-28T08:35:44;15.17;;;6.67;;
71639;SDS011;60912;48.968;10.124;2023-02-28T08:38:09;16.03;;;5.80;;
71639;SDS011;60912;48.968;10.124;2023-02-28T08:40:37;9.10;;;4.70;;
71639;SDS011;60912;48.968;10.124;2023-02-28T08:43:03;13.67;;;4.60;;
71639;SDS011;60912;48.968;10.124;2023-02-28T08:45:28;10.57;;;5.55;;
71639;SDS011;60912;48.968;10.124;2023-02-28T08:47:56;11.47;;;4.60;;
71639;SDS011;60912;48.968;10.124;2023-02-28T08:50:22;12.73;;;7.78;;
71639;SDS011;60912;48.968;10.124;2023-02-28T08:52:47;18.33;;;6.40;;
71639;SDS011;60912;48.968;10.124;2023-02-28T08:55:13;11.57;;;7.17;;
71639;SDS011;60912;48.968;10.124;2023-02-28T08:57:56;10.43;;;5.40;;
71639;SDS011;60912;48.968;10.124;2023-02-28T09:00:59;14.95;;;6.78;;
71639;SDS011;60912;48.968;10.124;2023-02-28T09:03:24;13.03;;;8.87;;
71639;SDS011;60912;48.968;10.124;2023-02-28T09:05:57;15.63;;;6.90;;
71639;SDS011;60912;48.968;10.124;2023-02-28T09:08:24;13.43;;;5.50;;
71639;SDS011;60912;48.968;10.124;2023-02-28T09:10:51;10.98;;;6.15;;
71639;SDS011;60912;48.968;10.124;2023-02-28T09:13:17;11.95;;;6.63;;
71639;SDS011;60912;48.968;10.124;2023-02-28T09:15:43;12.25;;;5.50;;
71639;SDS011;60912;48.968;10.124;2023-02-28T09:18:08;11.13;;;7.30;;
71639;SDS011;60912;48.968;10.124;2023-02-28T09:20:36;10.00;;;6.32;;
71639;SDS011;60912;48.968;10.124;2023-02-28T09:23:03;12.13;;;5.57;;
71639;SDS011;60912;48.968;10.124;2023-02-28T09:25:28;12.85;;;7.75;;
71639;SDS011;60912;48.968;10.124;2023-02-28T09:27:53;11.47;;;6.60;;
71639;SDS011;60912;48.968;10.124;2023-02-28T09:30:19;12.70;;;7.63;;
71639;SDS011;60912;48.968;10.124;2023-02-28T09:32:44;9.20;;;4.63;;
71639;SDS011;60912;48.968;10.124;2023-02-28T09:35:17;14.93;;;6.57;;
71639;SDS011;60912;48.968;10.124;2023-02-28T09:37:49;14.90;;;6.70;;
71639;SDS011;60912;48.968;10.124;2023-02-28T09:40:20;17.10;;;6.78;;
71639;SDS011;60912;48.968;10.124;2023-02-28T09:42:49;16.50;;;7.70;;
71639;SDS011;60912;48.968;10.124;2023-02-28T09:45:28;10.38;;;5.70;;
71639;SDS011;60912;48.968;10.124;2023-02-28T09:48:20;14.13;;;5.93;;
71639;SDS011;60912;48.968;10.124;2023-02-28T09:50:50;13.30;;;5.60;;
71639;SDS011;60912;48.968;10.124;2023-02-28T09:53:36;9.43;;;4.97;;
71639;SDS011;60912;48.968;10.124;2023-02-28T09:56:08;10.97;;;5.80;;
71639;SDS011;60912;48.968;10.124;2023-02-28T10:06:41;20.52;;;5.10;;
71639;SDS011;60912;48.968;10.124;2023-02-28T10:11:50;9.13;;;5.00;;
71639;SDS011;60912;48.968;10.124;2023-02-28T10:14:18;12.03;;;6.37;;
71639;SDS011;60912;48.968;10.124;2023-02-28T10:16:56;10.88;;;5.95;;
71639;SDS011;60912;48.968;10.124;2023-02-28T10:19:30;10.40;;;6.32;;
71639;SDS011;60912;48.968;10.124;2023-02-28T10:22:01;11.48;;;6.55;;
71639;SDS011;60912;48.968;10.124;2023-02-28T10:24:37;10.35;;;5.22;;
71639;SDS011;60912;48.968;10.124;2023-02-28T10:27:15;16.23;;;5.63;;
71639;SDS011;60912;48.968;10.124;2023-02-28T10:29:44;11.57;;;6.40;;
71639;SDS011;60912;48.968;10.124;2023-02-28T10:32:14;10.32;;;4.47;;
71639;SDS011;60912;48.968;10.124;2023-02-28T10:34:42;8.98;;;5.53;;
71639;SDS011;60912;48.968;10.124;2023-02-28T10:37:07;11.93;;;4.97;;
71639;SDS011;60912;48.968;10.124;2023-02-28T10:39:45;8.57;;;4.95;;
71639;SDS011;60912;48.968;10.124;2023-02-28T10:44:46;18.92;;;5.57;;
71639;SDS011;60912;48.968;10.124;2023-02-28T10:47:16;13.20;;;7.50;;
71639;SDS011;60912;48.968;10.124;2023-02-28T10:49:51;12.00;;;7.72;;
71639;SDS011;60912;48.968;10.124;2023-02-28T10:55:14;10.43;;;5.17;;
71639;SDS011;60912;48.968;10.124;2023-02-28T10:57:44;10.43;;;6.40;;
71639;SDS011;60912;48.968;10.124;2023-02-28T11:00:15;11.70;;;6.07;;
71639;SDS011;60912;48.968;10.124;2023-02-28T11:02:43;11.23;;;7.30;;
71639;SDS011;60912;48.968;10.124;2023-02-28T11:08:02;10.95;;;6.97;;
71639;SDS011;60912;48.968;10.124;2023-02-28T11:10:36;9.65;;;4.10;;
71639;SDS011;60912;48.968;10.124;2023-02-28T11:13:02;11.10;;;6.60;;
71639;SDS011;60912;48.968;10.124;2023-02-28T11:15:37;11.98;;;6.45;;
71639;SDS011;60912;48.968;10.124;2023-02-28T11:20:32;12.43;;;6.25;;
71639;SDS011;60912;48.968;10.124;2023-02-28T11:22:59;6.88;;;4.05;;
71639;SDS011;60912;48.968;10.124;2023-02-28T11:25:30;8.80;;;4.87;;
71639;SDS011;60912;48.968;10.124;2023-02-28T11:28:02;11.73;;;5.95;;
71639;SDS011;60912;48.968;10.124;2023-02-28T11:35:52;13.32;;;6.85;;
71639;SDS011;60912;48.968;10.124;2023-02-28T11:38:25;9.63;;;4.87;;
71639;SDS011;60912;48.968;10.124;2023-02-28T11:49:04;9.07;;;5.68;;
71639;SDS011;60912;48.968;10.124;2023-02-28T11:51:41;13.32;;;6.97;;
71639;SDS011;60912;48.968;10.124;2023-02-28T11:54:22;13.73;;;8.57;;
71639;SDS011;60912;48.968;10.124;2023-02-28T11:56:57;11.23;;;7.00;;
71639;SDS011;60912;48.968;10.124;2023-02-28T12:27:46;10.98;;;5.75;;
71639;SDS011;60912;48.968;10.124;2023-02-28T12:30:14;11.05;;;6.35;;
71639;SDS011;60912;48.968;10.124;2023-02-28T12:35:39;11.87;;;6.93;;
71639;SDS011;60912;48.968;10.124;2023-02-28T12:38:22;14.02;;;6.82;;
71639;SDS011;60912;48.968;10.124;2023-02-28T12:40:58;12.18;;;7.80;;
71639;SDS011;60912;48.968;10.124;2023-02-28T12:43:29;9.15;;;5.07;;
71639;SDS011;60912;48.968;10.124;2023-02-28T12:46:00;10.68;;;5.00;;
71639;SDS011;60912;48.968;10.124;2023-02-28T12:51:07;8.77;;;4.00;;
71639;SDS011;60912;48.968;10.124;2023-02-28T12:59:05;15.60;;;8.93;;
71639;SDS011;60912;48.968;10.124;2023-02-28T13:04:27;11.73;;;6.13;;
71639;SDS011;60912;48.968;10.124;2023-02-28T13:09:31;10.90;;;6.32;;
71639;SDS011;60912;48.968;10.124;2023-02-28T13:11:57;12.88;;;6.88;;
71639;SDS011;60912;48.968;10.124;2023-02-28T13:14:28;10.83;;;5.90;;
71639;SDS011;60912;48.968;10.124;2023-02-28T13:19:26;14.57;;;7.07;;
71639;SDS011;60912;48.968;10.124;2023-02-28T13:21:54;11.55;;;4.97;;
71639;SDS011;60912;48.968;10.124;2023-02-28T13:29:58;16.73;;;6.80;;
71639;SDS011;60912;48.968;10.124;2023-02-28T13:32:29;11.52;;;7.50;;
71639;SDS011;60912;48.968;10.124;2023-02-28T13:40:42;15.23;;;7.35;;
71639;SDS011;60912;48.968;10.124;2023-02-28T13:43:01;13.10;;;7.18;;
71639;SDS011;60912;48.968;10.124;2023-02-28T13:45:28;11.37;;;6.57;;
71639;SDS011;60912;48.968;10.124;2023-02-28T13:48:05;12.97;;;7.30;;
71639;SDS011;60912;48.968;10.124;2023-02-28T13:50:41;10.25;;;6.22;;
71639;SDS011;60912;48.968;10.124;2023-02-28T14:06:59;10.43;;;6.15;;
71639;SDS011;60912;48.968;10.124;2023-02-28T14:11:53;12.57;;;7.70;;
71639;SDS011;60912;48.968;10.124;2023-02-28T14:17:05;16.10;;;8.70;;
71639;SDS011;60912;48.968;10.124;2023-02-28T14:19:32;11.82;;;6.80;;
71639;SDS011;60912;48.968;10.124;2023-02-28T14:22:26;11.23;;;6.50;;
71639;SDS011;60912;48.968;10.124;2023-02-28T14:31:01;11.73;;;7.07;;
71639;SDS011;60912;48.968;10.124;2023-02-28T14:36:32;12.17;;;7.43;;
71639;SDS011;60912;48.968;10.124;2023-02-28T14:39:03;16.30;;;6.82;;
71639;SDS011;60912;48.968;10.124;2023-02-28T14:41:47;14.50;;;6.63;;
71639;SDS011;60912;48.968;10.124;2023-02-28T14:44:25;12.73;;;7.20;;
71639;SDS011;60912;48.968;10.124;2023-02-28T14:47:01;13.18;;;7.35;;
71639;SDS011;60912;48.968;10.124;2023-02-28T14:49:44;14.10;;;6.90;;
71639;SDS011;60912;48.968;10.124;2023-02-28T14:52:24;10.57;;;6.45;;
71639;SDS011;60912;48.968;10.124;2023-02-28T14:55:14;16.88;;;8.13;;
71639;SDS011;60912;48.968;10.124;2023-02-28T14:57:56;12.30;;;6.38;;
71639;SDS011;60912;48.968;10.124;2023-02-28T15:00:29;12.15;;;6.90;;
71639;SDS011;60912;48.968;10.124;2023-02-28T15:03:00;13.50;;;6.77;;
71639;SDS011;60912;48.968;10.124;2023-02-28T15:05:54;9.93;;;6.00;;
71639;SDS011;60912;48.968;10.124;2023-02-28T15:08:56;15.10;;;6.93;;
71639;SDS011;60912;48.968;10.124;2023-02-28T15:11:41;11.70;;;6.78;;
71639;SDS011;60912;48.968;10.124;2023-02-28T15:14:36;23.67;;;7.13;;
71639;SDS011;60912;48.968;10.124;2023-02-28T15:17:14;12.53;;;7.20;;
71639;SDS011;60912;48.968;10.124;2023-02-28T15:19:48;12.68;;;7.20;;
71639;SDS011;60912;48.968;10.124;2023-02-28T15:22:18;12.55;;;5.82;;
71639;SDS011;60912;48.968;10.124;2023-02-28T15:24:50;11.95;;;6.97;;
71639;SDS011;60912;48.968;10.124;2023-02-28T15:29:58;14.47;;;7.43;;
71639;SDS011;60912;48.968;10.124;2023-02-28T15:32:37;8.18;;;5.05;;
71639;SDS011;60912;48.968;10.124;2023-02-28T15:40:41;13.43;;;8.25;;
71639;SDS011;60912;48.968;10.124;2023-02-28T15:43:31;14.90;;;6.93;;
71639;SDS011;60912;48.968;10.124;2023-02-28T15:46:01;13.77;;;6.80;;
71639;SDS011;60912;48.968;10.124;2023-02-28T15:48:35;11.40;;;6.65;;
71639;SDS011;60912;48.968;10.124;2023-02-28T15:51:43;16.70;;;7.30;;
71639;SDS011;60912;48.968;10.124;2023-02-28T15:54:27;11.73;;;7.60;;
71639;SDS011;60912;48.968;10.124;2023-02-28T15:57:13;15.00;;;7.27;;
71639;SDS011;60912;48.968;10.124;2023-02-28T16:00:15;12.68;;;6.68;;
71639;SDS011;60912;48.968;10.124;2023-02-28T16:02:48;10.82;;;6.40;;
71639;SDS011;60912;48.968;10.124;2023-02-28T16:05:24;11.88;;;6.25;;
71639;SDS011;60912;48.968;10.124;2023-02-28T17:22:19;16.10;;;8.23;;
71639;SDS011;60912;48.968;10.124;2023-02-28T17:24:51;14.73;;;8.00;;
71639;SDS011;60912;48.968;10.124;2023-02-28T17:31:35;20.52;;;8.98;;
71639;SDS011;60912;48.968;10.124;2023-02-28T17:42:13;15.77;;;8.07;;
71639;SDS011;60912;48.968;10.124;2023-02-28T17:44:58;15.88;;;8.23;;
71639;SDS011;60912;48.968;10.124;2023-02-28T17:47:56;16.35;;;8.25;;
71639;SDS011;60912;48.968;10.124;2023-02-28T17:51:00;15.30;;;8.63;;
71639;SDS011;60912;48.968;10.124;2023-02-28T17:53:37;16.60;;;8.23;;
71639;SDS011;60912;48.968;10.124;2023-02-28T18:01:58;18.88;;;9.45;;
71639;SDS011;60912;48.968;10.124;2023-02-28T18:07:17;19.92;;;8.98;;
71639;SDS011;60912;48.968;10.124;2023-02-28T18:10:31;20.27;;;9.33;;
71639;SDS011;60912;48.968;10.124;2023-02-28T18:13:15;18.15;;;9.27;;
71639;SDS011;60912;48.968;10.124;2023-02-28T18:21:47;19.27;;;9.43;;
71639;SDS011;60912;48.968;10.124;2023-02-28T18:27:43;16.60;;;9.40;;
71639;SDS011;60912;48.968;10.124;2023-02-28T18:30:35;19.58;;;9.32;;
71639;SDS011;60912;48.968;10.124;2023-02-28T19:03:57;18.23;;;8.98;;
71639;SDS011;60912;48.968;10.124;2023-02-28T19:07:05;19.60;;;10.35;;
71639;SDS011;60912;48.968;10.124;2023-02-28T19:10:08;20.47;;;10.33;;
71639;SDS011;60912;48.968;10.124;2023-02-28T19:20:08;18.20;;;9.77;;
71639;SDS011;60912;48.968;10.124;2023-02-28T19:29:13;19.48;;;9.90;;
71639;SDS011;60912;48.968;10.124;2023-02-28T19:57:17;18.10;;;9.20;;
71639;SDS011;60912;48.968;10.124;2023-02-28T21:46:55;18.42;;;9.98;;
71639;SDS011;60912;48.968;10.124;2023-02-28T21:49:29;19.95;;;10.07;;
71639;SDS011;60912;48.968;10.124;2023-02-28T21:55:46;21.67;;;10.80;;
71639;SDS011;60912;48.968;10.124;2023-02-28T22:04:55;18.45;;;9.98;;
71639;SDS011;60912;48.968;10.124;2023-02-28T22:07:26;20.30;;;10.63;;
71639;SDS011;60912;48.968;10.124;2023-02-28T22:09:51;21.90;;;10.53;;
71639;SDS011;60912;48.968;10.124;2023-02-28T22:12:28;19.45;;;10.18;;
71639;SDS011;60912;48.968;10.124;2023-02-28T22:18:33;17.80;;;9.52;;
71639;SDS011;60912;48.968;10.124;2023-02-28T22:21:10;17.20;;;9.82;;
71639;SDS011;60912;48.968;10.124;2023-02-28T22:24:00;21.13;;;10.30;;
71639;SDS011;60912;48.968;10.124;2023-02-28T22:26:45;19.60;;;10.50;;
71639;SDS011;60912;48.968;10.124;2023-02-28T22:37:06;20.38;;;10.45;;
71639;SDS011;60912;48.968;10.124;2023-02-28T22:39:51;20.37;;;10.43;;
71639;SDS011;60912;48.968;10.124;2023-02-28T22:42:45;21.60;;;10.63;;
71639;SDS011;60912;48.968;10.124;2023-02-28T22:45:14;20.98;;;11.07;;
71639;SDS011;60912;48.968;10.124;2023-02-28T22:54:41;17.53;;;10.13;;
71639;SDS011;60912;48.968;10.124;2023-02-28T22:57:07;18.60;;;10.93;;
71639;SDS011;60912;48.968;10.124;2023-02-28T23:00:11;20.75;;;11.20;;
71639;SDS011;60912;48.968;10.124;2023-02-28T23:11:00;21.33;;;10.53;;
71639;SDS011;60912;48.968;10.124;2023-02-28T23:14:03;19.92;;;11.05;;
71639;SDS011;60912;48.968;10.124;2023-02-28T23:17:06;19.50;;;11.35;;
71639;SDS011;60912;48.968;10.124;2023-02-28T23:19:40;19.75;;;10.85;;
71639;SDS011;60912;48.968;10.124;2023-02-28T23:22:18;21.50;;;11.25;;
71639;SDS011;60912;48.968;10.124;2023-02-28T23:24:46;19.67;;;10.53;;
71639;SDS011;60912;48.968;10.124;2023-02-28T23:27:24;20.42;;;11.15;;
71639;SDS011;60912;48.968;10.124;2023-02-28T23:29:57;20.98;;;11.25;;
71639;SDS011;60912;48.968;10.124;2023-02-28T23:32:55;19.95;;;11.15;;
71639;SDS011;60912;48.968;10.124;2023-02-28T23:35:20;21.38;;;11.85;;
71639;SDS011;60912;48.968;10.124;2023-02-28T23:37:46;23.47;;;10.17;;
71639;SDS011;60912;48.968;10.124;2023-02-28T23:40:15;23.17;;;11.20;;
71639;SDS011;60912;48.968;10.124;2023-02-28T23:42:52;22.10;;;10.87;;
71639;SDS011;60912;48.968;10.124;2023-02-28T23:45:20;25.05;;;12.32;;
71639;SDS011;60912;48.968;10.124;2023-02-28T23:47:48;24.08;;;12.07;;
71639;SDS011;60912;48.968;10.124;2023-02-28T23:50:24;22.60;;;11.18;;
71639;SDS011;60912;48.968;10.124;2023-02-28T23:52:49;20.67;;;11.30;;
71639;SDS011;60912;48.968;10.124;2023-02-28T23:55:15;22.00;;;11.43;;
71639;SDS011;60912;48.968;10.124;2023-02-28T23:57:47;21.23;;;11.25;;
